Inicio METAR Ruta Wind Satelite

Informe Meteorológico

Fecha: 2020/07/02 00:10:31 Local
2020.07.02 05:10 UTC


Estado: VENCIDO
Operación:
San Jose Del Guaviare, Colombia (SKSJ) 02-34N 072-38W 155M
Dec 03, 2019 - 06:00 AM EST / 2019.12.03 1100 UTC
Wind: Calm:0
Visibility: greater than 7 mile(s):0
Sky conditions: partly cloudy
Temperature: 73 F (23 C)
Dew Point: 71 F (22 C)
Relative Humidity: 94%
Pressure (altimeter): 29.87 in. Hg (1011 hPa)
ob: SKSJ 031100Z 00000KT 9999 SCT050 23/22 A2987
cycle: 11